Time;durP1;ratioP1;P1;durP2;ratioP2;P2;SDS_P1;SDS_P2;PMS_P1;PMS_P2;Temp;Humidity;BMP_temperature;BMP_pressure;BME280_temperature;BME280_humidity;BME280_pressure;Samples;Min_cycle;Max_cycle;Signal;HPM_P1;HPM_P2
2022/11/11 00:01:14;;;;;;;;;;;10.50;76.90;;;;;;5034803;28;20004;-81
2022/11/11 00:03:39;;;;;;;;;;;10.60;77.10;;;;;;5042053;28;19917;-79
2022/11/11 00:06:07;;;;;;;;;;;10.50;77.30;;;;;;5043742;28;19923;-79
2022/11/11 00:08:32;;;;;;;;;;;10.50;77.30;;;;;;5036059;28;19913;-80
2022/11/11 00:10:59;;;;;;;;;;;10.50;77.40;;;;;;5035864;28;19960;-80
2022/11/11 00:13:24;;;;;;;;;;;10.50;77.50;;;;;;5042724;28;20366;-80
2022/11/11 00:15:50;;;;;;;;;;;10.50;77.90;;;;;;5032433;28;19943;-79
2022/11/11 00:26:27;;;;;;;;;;;10.40;78.00;;;;;;5038988;28;19923;-80
2022/11/11 00:28:53;;;;;;;;;;;10.40;78.20;;;;;;5039519;28;19999;-79
2022/11/11 00:31:18;;;;;;;;;;;10.40;78.00;;;;;;5035030;28;20375;-80
2022/11/11 00:33:44;;;;;;;;;;;10.40;78.10;;;;;;5056795;28;19995;-80
2022/11/11 00:36:09;;;;;;;;;;;10.30;78.30;;;;;;5034921;28;19917;-80
2022/11/11 00:38:48;;;;;;;;;;;10.30;78.30;;;;;;5035125;28;19921;-80
2022/11/11 00:41:18;;;;;;;;;;;10.30;78.50;;;;;;5036843;28;19917;-80
2022/11/11 00:43:44;;;;;;;;;;;10.30;78.60;;;;;;5036222;28;19913;-79
2022/11/11 00:51:39;;;;;;;;;;;10.20;78.80;;;;;;5035243;28;19917;-80
2022/11/11 00:54:04;;;;;;;;;;;10.10;79.00;;;;;;5033750;28;19917;-80
2022/11/11 00:56:30;;;;;;;;;;;10.20;78.80;;;;;;5038677;28;19920;-78
2022/11/11 00:58:55;;;;;;;;;;;10.20;78.70;;;;;;5050225;28;20051;-79
2022/11/11 01:01:21;;;;;;;;;;;10.20;78.60;;;;;;5034638;28;20006;-78
2022/11/11 01:03:46;;;;;;;;;;;10.10;78.90;;;;;;5030351;28;20286;-78
2022/11/11 01:06:12;;;;;;;;;;;10.20;78.70;;;;;;5040643;28;20258;-80
2022/11/11 01:08:37;;;;;;;;;;;10.10;78.80;;;;;;5030707;28;20341;-79
2022/11/11 01:11:03;;;;;;;;;;;10.10;79.00;;;;;;5036652;28;20307;-79
2022/11/11 01:13:29;;;;;;;;;;;10.10;79.30;;;;;;5047240;28;19917;-79
2022/11/11 01:16:02;;;;;;;;;;;10.10;79.10;;;;;;5050129;28;20386;-78
2022/11/11 01:18:28;;;;;;;;;;;10.00;79.20;;;;;;5048278;28;19971;-80
2022/11/11 01:21:01;;;;;;;;;;;10.00;79.30;;;;;;5040757;28;19948;-79
2022/11/11 01:23:27;;;;;;;;;;;10.00;79.00;;;;;;5031692;28;19909;-80
2022/11/11 01:25:52;;;;;;;;;;;10.10;78.80;;;;;;5039578;28;20604;-79
2022/11/11 01:28:18;;;;;;;;;;;10.10;78.60;;;;;;5041677;28;19913;-79
2022/11/11 01:30:43;;;;;;;;;;;10.10;78.30;;;;;;5031883;28;19913;-80
2022/11/11 01:33:09;;;;;;;;;;;10.10;78.60;;;;;;5032379;28;19998;-80
2022/11/11 01:35:39;;;;;;;;;;;10.10;78.50;;;;;;5034595;28;20400;-79
2022/11/11 01:38:05;;;;;;;;;;;10.10;78.50;;;;;;5045851;28;19919;-78
2022/11/11 01:40:30;;;;;;;;;;;10.10;78.30;;;;;;5031707;28;19972;-81
2022/11/11 01:43:05;;;;;;;;;;;10.10;78.40;;;;;;5036010;28;19920;-80
2022/11/11 01:45:49;;;;;;;;;;;10.10;78.50;;;;;;5041198;28;19960;-79
2022/11/11 01:51:03;;;;;;;;;;;10.20;77.90;;;;;;5030252;28;19921;-79
2022/11/11 01:53:28;;;;;;;;;;;10.10;78.10;;;;;;5034446;28;19916;-80
2022/11/11 01:55:54;;;;;;;;;;;10.10;78.30;;;;;;5037260;28;19913;-80
2022/11/11 01:58:19;;;;;;;;;;;10.10;78.20;;;;;;5049802;28;20005;-80
2022/11/11 02:00:45;;;;;;;;;;;10.00;78.40;;;;;;5033850;28;19914;-79
2022/11/11 02:03:12;;;;;;;;;;;10.00;78.30;;;;;;5032695;28;19917;-79
2022/11/11 02:05:46;;;;;;;;;;;10.10;78.40;;;;;;5037367;28;19952;-79
2022/11/11 02:08:32;;;;;;;;;;;10.10;78.10;;;;;;5030438;28;19913;-80
2022/11/11 02:11:10;;;;;;;;;;;10.10;78.00;;;;;;5057202;23;19994;-85
2022/11/11 02:16:21;;;;;;;;;;;10.10;77.70;;;;;;5043863;28;19928;-86
2022/11/11 02:18:46;;;;;;;;;;;10.10;77.60;;;;;;5050922;28;20031;-85
2022/11/11 02:21:13;;;;;;;;;;;10.20;77.10;;;;;;5048350;28;19959;-85
2022/11/11 02:23:44;;;;;;;;;;;10.20;77.60;;;;;;5047669;28;19913;-85
2022/11/11 02:26:10;;;;;;;;;;;10.20;77.70;;;;;;5050672;28;19925;-85
2022/11/11 02:28:36;;;;;;;;;;;10.10;77.40;;;;;;5064243;28;20387;-85
2022/11/11 02:31:01;;;;;;;;;;;10.10;77.40;;;;;;5049421;28;20390;-85
2022/11/11 02:33:27;;;;;;;;;;;10.10;77.60;;;;;;5062829;28;19947;-86
2022/11/11 02:35:57;;;;;;;;;;;10.10;77.80;;;;;;5058107;28;19927;-85
2022/11/11 02:38:23;;;;;;;;;;;10.10;77.70;;;;;;5053358;28;19920;-85
2022/11/11 02:43:32;;;;;;;;;;;10.10;77.70;;;;;;5047432;28;20286;-86
2022/11/11 02:45:58;;;;;;;;;;;10.00;77.70;;;;;;5052610;28;19912;-85
2022/11/11 02:48:24;;;;;;;;;;;10.00;77.90;;;;;;5048593;28;19921;-85
2022/11/11 02:50:50;;;;;;;;;;;10.00;77.80;;;;;;5063276;28;19921;-86
2022/11/11 02:53:15;;;;;;;;;;;9.90;78.00;;;;;;5054847;28;20295;-86
2022/11/11 02:55:41;;;;;;;;;;;9.90;78.20;;;;;;5055164;28;19920;-85
2022/11/11 02:58:07;;;;;;;;;;;9.90;78.00;;;;;;5050688;28;19913;-85
2022/11/11 03:00:32;;;;;;;;;;;9.90;78.00;;;;;;5052831;28;20303;-86
2022/11/11 03:02:57;;;;;;;;;;;9.90;78.10;;;;;;5039020;28;20664;-86
2022/11/11 03:05:23;;;;;;;;;;;9.90;78.00;;;;;;5060090;28;20287;-85
2022/11/11 03:07:48;;;;;;;;;;;9.90;77.80;;;;;;5062638;28;20393;-85
2022/11/11 03:10:14;;;;;;;;;;;9.90;77.90;;;;;;5054663;28;19913;-86
2022/11/11 03:12:40;;;;;;;;;;;9.90;77.90;;;;;;5044116;28;19920;-86
2022/11/11 03:15:05;;;;;;;;;;;9.80;78.00;;;;;;5055606;28;19909;-85
2022/11/11 03:17:40;;;;;;;;;;;9.90;78.10;;;;;;5051497;28;19919;-86
2022/11/11 03:23:00;;;;;;;;;;;9.90;77.40;;;;;;5055945;28;19973;-85
2022/11/11 03:25:38;;;;;;;;;;;9.90;77.80;;;;;;5052792;28;20007;-86
2022/11/11 03:28:06;;;;;;;;;;;9.90;77.80;;;;;;5055896;28;19916;-86
2022/11/11 03:30:32;;;;;;;;;;;9.90;78.10;;;;;;5057468;28;19913;-86
2022/11/11 03:32:58;;;;;;;;;;;9.90;78.10;;;;;;5058986;28;20388;-86
2022/11/11 03:35:23;;;;;;;;;;;9.90;77.80;;;;;;5062451;28;19917;-86
2022/11/11 03:40:33;;;;;;;;;;;9.90;77.80;;;;;;5054877;28;20028;-86
2022/11/11 03:42:59;;;;;;;;;;;9.90;77.80;;;;;;5051312;28;19968;-86
2022/11/11 03:45:24;;;;;;;;;;;9.90;77.60;;;;;;5048253;28;19924;-86
2022/11/11 03:47:50;;;;;;;;;;;9.90;77.80;;;;;;5052772;28;19916;-88
2022/11/11 03:50:15;;;;;;;;;;;9.80;77.50;;;;;;5047587;28;19917;-85
2022/11/11 03:52:42;;;;;;;;;;;9.90;77.40;;;;;;5075314;28;19904;-86
2022/11/11 03:55:07;;;;;;;;;;;9.90;77.60;;;;;;5055889;28;19913;-86
2022/11/11 03:57:33;;;;;;;;;;;9.80;77.50;;;;;;5068997;28;19913;-86
2022/11/11 03:59:59;;;;;;;;;;;9.90;77.60;;;;;;5058450;28;19920;-86
2022/11/11 04:10:37;;;;;;;;;;;9.90;77.00;;;;;;5063264;28;20336;-86
2022/11/11 04:16:07;;;;;;;;;;;10.00;77.10;;;;;;5048310;28;20048;-86
2022/11/11 04:24:01;;;;;;;;;;;9.90;77.30;;;;;;5060434;28;19994;-86
2022/11/11 04:26:27;;;;;;;;;;;9.90;77.10;;;;;;5056129;28;19917;-85
2022/11/11 04:32:34;;;;;;;;;;;9.90;77.00;;;;;;5054672;28;20314;-85
2022/11/11 04:34:22;;;;;;;;;;;9.90;76.80;;;;;;5054404;28;20050;-86
2022/11/11 04:36:47;;;;;;;;;;;9.90;76.90;;;;;;5056400;28;19951;-86
2022/11/11 04:41:56;;;;;;;;;;;9.80;77.10;;;;;;5047495;28;19920;-86
2022/11/11 04:47:06;;;;;;;;;;;9.80;77.80;;;;;;5062709;28;20389;-86
2022/11/11 04:49:31;;;;;;;;;;;9.80;77.60;;;;;;5060067;28;19928;-85
2022/11/11 04:56:46;;;;;;;;;;;9.80;77.30;;;;;;5052923;28;19920;-85
2022/11/11 04:57:26;;;;;;;;;;;9.80;77.40;;;;;;5052927;28;20460;-86
2022/11/11 04:59:52;;;;;;;;;;;9.80;77.80;;;;;;5053988;28;19916;-86
2022/11/11 05:05:02;;;;;;;;;;;9.80;77.20;;;;;;5060860;28;19982;-86
2022/11/11 05:10:11;;;;;;;;;;;9.90;76.80;;;;;;5051929;28;20004;-86
2022/11/11 05:12:37;;;;;;;;;;;9.90;76.10;;;;;;5051756;28;20365;-85
2022/11/11 05:23:15;;;;;;;;;;;9.80;76.50;;;;;;5057247;28;19920;-87
2022/11/11 05:25:40;;;;;;;;;;;9.80;76.50;;;;;;5055015;28;20309;-85
2022/11/11 05:28:06;;;;;;;;;;;9.90;76.30;;;;;;5054305;28;20400;-84
2022/11/11 05:30:33;;;;;;;;;;;9.90;76.30;;;;;;5055939;28;19991;-85
2022/11/11 05:32:58;;;;;;;;;;;9.80;76.40;;;;;;5055012;28;19916;-84
2022/11/11 05:35:24;;;;;;;;;;;9.80;76.60;;;;;;5071143;28;20006;-87
2022/11/11 05:40:34;;;;;;;;;;;9.90;76.30;;;;;;5057495;28;19928;-85
2022/11/11 05:42:59;;;;;;;;;;;9.80;76.40;;;;;;5056710;28;19909;-85
2022/11/11 05:45:25;;;;;;;;;;;9.90;76.00;;;;;;5053232;28;20055;-85
2022/11/11 05:47:50;;;;;;;;;;;9.80;76.10;;;;;;5058987;28;19917;-85
2022/11/11 05:50:15;;;;;;;;;;;9.80;76.20;;;;;;5052784;28;20009;-84
2022/11/11 05:52:46;;;;;;;;;;;9.80;76.50;;;;;;5050219;28;19958;-86
2022/11/11 05:55:11;;;;;;;;;;;9.80;76.20;;;;;;5050557;28;19919;-85
2022/11/11 05:57:36;;;;;;;;;;;9.80;76.00;;;;;;5060552;28;19942;-86
2022/11/11 06:00:02;;;;;;;;;;;9.80;76.30;;;;;;5062741;28;19913;-84
2022/11/11 06:02:28;;;;;;;;;;;9.70;76.60;;;;;;5045599;28;19974;-85
2022/11/11 06:04:54;;;;;;;;;;;9.80;76.30;;;;;;5051821;28;19929;-85
2022/11/11 06:07:19;;;;;;;;;;;9.80;76.40;;;;;;5053790;28;19938;-85
2022/11/11 06:09:45;;;;;;;;;;;9.80;76.40;;;;;;5061374;28;19996;-86
2022/11/11 06:12:10;;;;;;;;;;;9.80;76.40;;;;;;5051262;28;19916;-85
2022/11/11 06:14:35;;;;;;;;;;;9.80;76.70;;;;;;5059037;28;19913;-85
2022/11/11 06:17:01;;;;;;;;;;;9.80;76.70;;;;;;5061045;28;19921;-85
2022/11/11 06:19:26;;;;;;;;;;;9.80;76.80;;;;;;5051750;28;19913;-85
2022/11/11 06:21:59;;;;;;;;;;;9.80;76.50;;;;;;5052688;28;19955;-85
2022/11/11 06:24:24;;;;;;;;;;;9.80;76.60;;;;;;5045182;28;19921;-84
2022/11/11 06:26:50;;;;;;;;;;;9.80;77.00;;;;;;5049928;28;19924;-85
2022/11/11 06:29:15;;;;;;;;;;;9.80;76.60;;;;;;5065237;28;19958;-85
2022/11/11 06:31:41;;;;;;;;;;;9.70;76.90;;;;;;5047274;28;20441;-85
2022/11/11 06:34:06;;;;;;;;;;;9.70;77.40;;;;;;5049455;28;20290;-85
2022/11/11 06:36:32;;;;;;;;;;;9.70;77.50;;;;;;5048713;28;19913;-85
2022/11/11 06:38:57;;;;;;;;;;;9.70;77.50;;;;;;5053871;28;19944;-85
2022/11/11 06:41:24;;;;;;;;;;;9.60;77.90;;;;;;5064818;28;19917;-85
2022/11/11 06:43:50;;;;;;;;;;;9.60;77.80;;;;;;5048032;28;20011;-85
2022/11/11 06:46:18;;;;;;;;;;;9.60;77.50;;;;;;5052131;28;19959;-86
2022/11/11 06:48:43;;;;;;;;;;;9.70;77.60;;;;;;5056673;28;19963;-86
2022/11/11 06:51:10;;;;;;;;;;;9.70;77.70;;;;;;5052276;28;19913;-87
2022/11/11 06:53:36;;;;;;;;;;;9.60;77.90;;;;;;5045401;28;19913;-86
2022/11/11 06:56:02;;;;;;;;;;;9.60;77.80;;;;;;5054207;28;19929;-86
2022/11/11 06:58:30;;;;;;;;;;;9.70;77.50;;;;;;5051649;28;19913;-86
2022/11/11 07:00:55;;;;;;;;;;;9.70;77.10;;;;;;5039696;28;19963;-85
2022/11/11 07:03:21;;;;;;;;;;;9.70;77.20;;;;;;5039009;28;19944;-84
2022/11/11 07:05:46;;;;;;;;;;;9.70;77.00;;;;;;5046322;28;19921;-86
2022/11/11 07:08:13;;;;;;;;;;;9.70;77.00;;;;;;5054403;28;19913;-85
2022/11/11 07:10:43;;;;;;;;;;;9.70;77.30;;;;;;5049085;28;19932;-85
2022/11/11 07:13:08;;;;;;;;;;;9.60;77.30;;;;;;5038609;28;20043;-84
2022/11/11 07:15:34;;;;;;;;;;;9.70;77.10;;;;;;5046666;28;19999;-83
2022/11/11 07:18:00;;;;;;;;;;;9.70;76.90;;;;;;5050891;28;19917;-84
2022/11/11 07:20:25;;;;;;;;;;;9.70;77.20;;;;;;5060973;28;19912;-83
2022/11/11 07:22:51;;;;;;;;;;;9.70;77.60;;;;;;5065202;28;19916;-83
2022/11/11 07:25:16;;;;;;;;;;;9.70;77.80;;;;;;5060152;28;19929;-84
2022/11/11 07:27:42;;;;;;;;;;;9.80;77.60;;;;;;5051005;28;20016;-85
2022/11/11 07:30:08;;;;;;;;;;;9.80;77.30;;;;;;5047640;28;19920;-86
2022/11/11 07:32:34;;;;;;;;;;;9.80;77.30;;;;;;5055725;28;19920;-85
2022/11/11 07:34:59;;;;;;;;;;;9.90;77.20;;;;;;5064773;28;19944;-85
2022/11/11 07:37:25;;;;;;;;;;;9.90;77.10;;;;;;5062381;28;19928;-84
2022/11/11 07:39:50;;;;;;;;;;;9.90;76.60;;;;;;5046835;28;19913;-85
2022/11/11 07:42:16;;;;;;;;;;;9.90;76.90;;;;;;5062592;28;19920;-87
2022/11/11 07:44:41;;;;;;;;;;;10.10;76.90;;;;;;5048349;28;19919;-84
2022/11/11 07:47:07;;;;;;;;;;;10.00;76.80;;;;;;5045564;28;19913;-85
2022/11/11 07:49:33;;;;;;;;;;;10.00;77.30;;;;;;5054988;28;19912;-86
2022/11/11 07:51:58;;;;;;;;;;;10.00;77.30;;;;;;5063326;28;19912;-86
2022/11/11 07:54:24;;;;;;;;;;;10.10;76.80;;;;;;5056614;28;19917;-88
2022/11/11 07:56:49;;;;;;;;;;;10.10;76.40;;;;;;5056125;28;19988;-86
2022/11/11 07:59:15;;;;;;;;;;;10.10;77.00;;;;;;5054158;28;19959;-86
2022/11/11 08:01:40;;;;;;;;;;;10.10;76.60;;;;;;5050702;28;19924;-86
2022/11/11 08:04:06;;;;;;;;;;;10.10;76.90;;;;;;5043134;28;19942;-87
2022/11/11 08:06:32;;;;;;;;;;;10.20;76.60;;;;;;5053391;28;19970;-87
2022/11/11 08:08:57;;;;;;;;;;;10.20;76.70;;;;;;5046252;28;19936;-86
2022/11/11 08:14:07;;;;;;;;;;;10.30;76.30;;;;;;5058126;28;19923;-79
2022/11/11 08:16:32;;;;;;;;;;;10.40;76.20;;;;;;5024851;28;19920;-81
2022/11/11 08:18:58;;;;;;;;;;;10.50;76.40;;;;;;5045980;28;20370;-82
2022/11/11 08:21:23;;;;;;;;;;;10.50;76.90;;;;;;5035338;28;19920;-80
2022/11/11 08:23:50;;;;;;;;;;;10.60;76.60;;;;;;5021212;28;19964;-82
2022/11/11 08:26:16;;;;;;;;;;;10.60;76.50;;;;;;5043146;28;19925;-83
2022/11/11 08:28:42;;;;;;;;;;;10.60;76.40;;;;;;5043542;28;19952;-83
2022/11/11 08:31:08;;;;;;;;;;;10.70;75.80;;;;;;5020302;28;19917;-83
2022/11/11 08:33:34;;;;;;;;;;;10.80;75.90;;;;;;5031411;28;19936;-82
2022/11/11 08:36:01;;;;;;;;;;;10.80;75.70;;;;;;5035667;28;19913;-85
2022/11/11 08:38:26;;;;;;;;;;;10.90;75.50;;;;;;5031506;28;20370;-81
2022/11/11 08:40:52;;;;;;;;;;;11.00;75.20;;;;;;5027637;28;20011;-82
2022/11/11 08:43:17;;;;;;;;;;;11.10;74.60;;;;;;5025671;28;20212;-82
2022/11/11 08:45:43;;;;;;;;;;;11.00;74.60;;;;;;5037019;28;19917;-81
2022/11/11 08:48:09;;;;;;;;;;;11.10;75.10;;;;;;5033038;28;19917;-82
2022/11/11 08:50:35;;;;;;;;;;;11.20;74.10;;;;;;5043899;28;19955;-80
2022/11/11 08:53:01;;;;;;;;;;;11.20;74.60;;;;;;5040983;28;19917;-79
2022/11/11 08:55:26;;;;;;;;;;;11.30;73.50;;;;;;5056173;28;19909;-82
2022/11/11 08:57:58;;;;;;;;;;;11.50;72.70;;;;;;5054466;28;19912;-80
2022/11/11 09:00:24;;;;;;;;;;;11.40;72.50;;;;;;5046705;28;19916;-82
2022/11/11 09:02:50;;;;;;;;;;;11.50;72.70;;;;;;5018828;28;20345;-80
2022/11/11 09:05:15;;;;;;;;;;;11.50;72.50;;;;;;5031826;28;19959;-82
2022/11/11 09:07:41;;;;;;;;;;;11.50;72.20;;;;;;5039208;28;19913;-79
2022/11/11 09:10:06;;;;;;;;;;;11.60;71.70;;;;;;5038711;28;19992;-80
2022/11/11 09:12:32;;;;;;;;;;;11.60;71.80;;;;;;5016805;28;19928;-81
2022/11/11 09:14:57;;;;;;;;;;;11.60;71.70;;;;;;5033592;28;19913;-82
2022/11/11 09:17:23;;;;;;;;;;;11.60;71.10;;;;;;5020528;28;19947;-82
2022/11/11 09:19:48;;;;;;;;;;;11.80;70.60;;;;;;5009192;28;20282;-82
2022/11/11 09:22:14;;;;;;;;;;;11.80;70.50;;;;;;5032069;28;19914;-80
2022/11/11 09:24:39;;;;;;;;;;;11.90;69.90;;;;;;5023030;28;19920;-81
2022/11/11 09:27:05;;;;;;;;;;;11.90;69.80;;;;;;4998966;28;19920;-81
2022/11/11 09:29:30;;;;;;;;;;;12.00;69.20;;;;;;5015223;28;19910;-81
2022/11/11 09:31:55;;;;;;;;;;;12.00;69.20;;;;;;5041424;28;19909;-81
2022/11/11 09:34:21;;;;;;;;;;;12.00;69.00;;;;;;5027673;28;19939;-81
2022/11/11 09:36:46;;;;;;;;;;;12.00;69.10;;;;;;5019342;28;19913;-80
2022/11/11 09:39:12;;;;;;;;;;;12.00;69.10;;;;;;5017474;28;20409;-81
2022/11/11 09:41:46;;;;;;;;;;;12.10;69.00;;;;;;5038861;28;19916;-82
2022/11/11 09:44:20;;;;;;;;;;;12.00;69.00;;;;;;5036192;28;19948;-81
2022/11/11 09:46:59;;;;;;;;;;;12.10;68.70;;;;;;5018326;28;19913;-81
2022/11/11 09:49:30;;;;;;;;;;;12.20;68.40;;;;;;5035175;28;19978;-81
2022/11/11 09:52:01;;;;;;;;;;;12.30;67.80;;;;;;5034511;28;19909;-81
2022/11/11 09:54:31;;;;;;;;;;;12.30;67.80;;;;;;5035943;28;19952;-79
2022/11/11 09:57:00;;;;;;;;;;;12.20;68.10;;;;;;5051290;28;19920;-79
2022/11/11 09:59:28;;;;;;;;;;;12.20;68.20;;;;;;5033377;28;19916;-80
2022/11/11 10:01:55;;;;;;;;;;;12.30;68.30;;;;;;5014905;28;19996;-81
2022/11/11 10:04:34;;;;;;;;;;;12.40;68.20;;;;;;5015499;28;19916;-81
2022/11/11 10:07:04;;;;;;;;;;;12.50;67.90;;;;;;5033705;28;19963;-81
2022/11/11 10:09:35;;;;;;;;;;;12.50;67.80;;;;;;5032315;28;19960;-80
2022/11/11 10:12:11;;;;;;;;;;;12.50;67.90;;;;;;5030614;28;19944;-78
2022/11/11 10:14:41;;;;;;;;;;;12.50;68.00;;;;;;5019017;28;19940;-82
2022/11/11 10:17:22;;;;;;;;;;;12.50;68.20;;;;;;5019410;28;19913;-82
2022/11/11 10:20:23;;;;;;;;;;;12.50;68.30;;;;;;5051136;28;19967;-79
2022/11/11 10:22:52;;;;;;;;;;;12.50;68.20;;;;;;4979163;28;19917;-81
2022/11/11 10:25:19;;;;;;;;;;;12.50;68.00;;;;;;5029445;28;19916;-82
2022/11/11 10:27:46;;;;;;;;;;;12.60;67.30;;;;;;5044452;28;19921;-81
2022/11/11 10:30:23;;;;;;;;;;;12.70;67.10;;;;;;5031696;28;20231;-81
2022/11/11 10:32:53;;;;;;;;;;;12.80;66.60;;;;;;5015091;28;20281;-80
2022/11/11 10:35:21;;;;;;;;;;;12.90;66.80;;;;;;5030434;28;19913;-80
2022/11/11 10:37:48;;;;;;;;;;;13.00;66.30;;;;;;5014579;28;19996;-80
2022/11/11 10:40:13;;;;;;;;;;;13.00;67.00;;;;;;5032319;28;19909;-80
2022/11/11 10:42:38;;;;;;;;;;;13.30;66.10;;;;;;5014448;28;19910;-81
2022/11/11 10:45:10;;;;;;;;;;;13.30;65.60;;;;;;5043705;28;19980;-79
2022/11/11 10:47:44;;;;;;;;;;;13.20;65.90;;;;;;5040996;28;19929;-79
2022/11/11 10:50:20;;;;;;;;;;;13.30;65.00;;;;;;5038437;28;20441;-82
2022/11/11 10:52:49;;;;;;;;;;;13.20;65.40;;;;;;5018891;28;19920;-82
2022/11/11 10:55:27;;;;;;;;;;;13.10;66.00;;;;;;5017485;28;19916;-81
2022/11/11 10:57:59;;;;;;;;;;;13.10;65.80;;;;;;5034141;28;20003;-80
2022/11/11 11:00:24;;;;;;;;;;;13.10;65.90;;;;;;5037643;28;19913;-82
2022/11/11 11:03:05;;;;;;;;;;;13.30;65.50;;;;;;5018351;28;19916;-81
2022/11/11 11:05:35;;;;;;;;;;;13.40;64.60;;;;;;5017654;28;20340;-81
2022/11/11 11:08:04;;;;;;;;;;;13.40;65.10;;;;;;5018534;28;20434;-81
2022/11/11 11:10:38;;;;;;;;;;;13.40;65.00;;;;;;5039488;28;19912;-80
2022/11/11 11:13:06;;;;;;;;;;;13.50;64.30;;;;;;5026707;28;19927;-81
2022/11/11 11:15:34;;;;;;;;;;;13.50;64.20;;;;;;5040273;28;19921;-80
2022/11/11 11:18:03;;;;;;;;;;;13.60;63.30;;;;;;5035956;28;19952;-79
2022/11/11 11:20:29;;;;;;;;;;;13.60;63.80;;;;;;5034796;28;20290;-80
2022/11/11 11:22:57;;;;;;;;;;;13.60;63.30;;;;;;5017800;28;20009;-80
2022/11/11 11:25:23;;;;;;;;;;;13.70;63.10;;;;;;5021297;28;19913;-79
2022/11/11 11:27:51;;;;;;;;;;;13.80;62.20;;;;;;5050138;28;21271;-82
2022/11/11 11:30:21;;;;;;;;;;;14.00;61.30;;;;;;5022224;28;19964;-81
2022/11/11 11:33:03;;;;;;;;;;;14.00;60.70;;;;;;5041067;28;19909;-79
2022/11/11 11:35:36;;;;;;;;;;;14.00;61.10;;;;;;5024240;28;19936;-81
2022/11/11 11:38:03;;;;;;;;;;;14.10;60.20;;;;;;5018286;28;19985;-80
2022/11/11 11:40:43;;;;;;;;;;;14.20;59.70;;;;;;5029615;28;20318;-80
2022/11/11 11:43:23;;;;;;;;;;;14.30;59.90;;;;;;5020983;28;19921;-79
2022/11/11 11:45:53;;;;;;;;;;;14.30;58.90;;;;;;5026078;28;19941;-80
2022/11/11 11:48:41;;;;;;;;;;;14.40;57.90;;;;;;5019478;28;19909;-82
2022/11/11 11:51:10;;;;;;;;;;;14.50;56.70;;;;;;5020458;28;19913;-79
2022/11/11 11:54:01;;;;;;;;;;;14.50;56.90;;;;;;5026529;28;20565;-80
2022/11/11 11:56:38;;;;;;;;;;;14.50;56.40;;;;;;5036141;28;19920;-79
2022/11/11 11:59:08;;;;;;;;;;;14.60;56.40;;;;;;5041696;28;19924;-80
2022/11/11 12:01:33;;;;;;;;;;;14.80;55.80;;;;;;5042487;28;20346;-79
2022/11/11 12:04:25;;;;;;;;;;;14.70;56.40;;;;;;5063612;28;19916;-80
2022/11/11 12:07:00;;;;;;;;;;;14.70;56.30;;;;;;5049633;28;19971;-79
2022/11/11 12:09:33;;;;;;;;;;;14.60;56.00;;;;;;5029997;28;19913;-80
2022/11/11 12:12:03;;;;;;;;;;;14.60;56.10;;;;;;5030560;28;20461;-81
2022/11/11 12:14:29;;;;;;;;;;;14.60;56.00;;;;;;5036650;28;19914;-81
2022/11/11 12:17:00;;;;;;;;;;;14.60;56.10;;;;;;5031606;28;19913;-81
2022/11/11 12:19:28;;;;;;;;;;;14.60;56.80;;;;;;5047772;28;20370;-82
2022/11/11 12:21:57;;;;;;;;;;;14.60;56.50;;;;;;5037471;28;20002;-81
2022/11/11 12:24:41;;;;;;;;;;;14.60;56.00;;;;;;5039195;28;19959;-81
2022/11/11 12:27:25;;;;;;;;;;;14.60;56.30;;;;;;5016499;28;19921;-82
2022/11/11 12:30:03;;;;;;;;;;;14.70;56.00;;;;;;5036011;28;19932;-82
2022/11/11 12:32:37;;;;;;;;;;;14.60;56.60;;;;;;5038126;28;19932;-80
2022/11/11 12:35:05;;;;;;;;;;;14.50;56.60;;;;;;5027997;28;19917;-82
2022/11/11 12:37:40;;;;;;;;;;;14.60;56.70;;;;;;5030044;28;20409;-83
2022/11/11 12:40:05;;;;;;;;;;;14.50;56.40;;;;;;5058303;28;19913;-80
2022/11/11 12:42:37;;;;;;;;;;;14.50;56.30;;;;;;5048699;28;20259;-82
2022/11/11 12:45:09;;;;;;;;;;;14.50;56.70;;;;;;5039311;28;19913;-83
2022/11/11 12:47:45;;;;;;;;;;;14.50;55.90;;;;;;5033931;28;19908;-82
2022/11/11 12:50:40;;;;;;;;;;;14.40;56.30;;;;;;5054224;28;19916;-84
2022/11/11 12:53:14;;;;;;;;;;;14.50;56.40;;;;;;5004547;28;19924;-81
2022/11/11 12:55:39;;;;;;;;;;;14.60;56.20;;;;;;5031815;28;20322;-82
2022/11/11 12:58:05;;;;;;;;;;;14.60;56.30;;;;;;5034124;28;19917;-81
2022/11/11 13:00:31;;;;;;;;;;;14.60;55.80;;;;;;5042721;28;19923;-83
2022/11/11 13:03:12;;;;;;;;;;;14.60;56.50;;;;;;5023767;28;19945;-83
2022/11/11 13:05:40;;;;;;;;;;;14.60;56.30;;;;;;5048312;28;19921;-82
2022/11/11 13:08:21;;;;;;;;;;;14.60;56.40;;;;;;5056614;28;19905;-80
2022/11/11 13:11:05;;;;;;;;;;;14.60;56.10;;;;;;5068571;28;19917;-83
2022/11/11 13:13:41;;;;;;;;;;;14.60;56.30;;;;;;5046989;28;19924;-81
2022/11/11 13:16:07;;;;;;;;;;;14.60;56.00;;;;;;5053237;28;20369;-82
2022/11/11 13:18:36;;;;;;;;;;;14.70;55.40;;;;;;5037917;28;19920;-83
2022/11/11 13:21:05;;;;;;;;;;;14.70;55.70;;;;;;5024806;28;20003;-83
2022/11/11 13:23:30;;;;;;;;;;;14.60;55.50;;;;;;5020179;28;19913;-83
2022/11/11 13:26:00;;;;;;;;;;;14.70;55.40;;;;;;5041621;28;19905;-81
2022/11/11 13:28:37;;;;;;;;;;;14.80;55.40;;;;;;5031614;28;19913;-82
2022/11/11 13:31:22;;;;;;;;;;;14.70;55.20;;;;;;5024880;28;19984;-82
2022/11/11 13:33:53;;;;;;;;;;;14.60;55.50;;;;;;5003865;28;19936;-81
2022/11/11 13:36:21;;;;;;;;;;;14.50;55.70;;;;;;5024763;28;19953;-81
2022/11/11 13:38:49;;;;;;;;;;;14.50;56.20;;;;;;5036497;28;19914;-82
2022/11/11 13:41:38;;;;;;;;;;;14.50;55.60;;;;;;5036375;28;19913;-84
2022/11/11 13:44:06;;;;;;;;;;;14.60;55.90;;;;;;5020210;28;19928;-83
2022/11/11 13:46:31;;;;;;;;;;;14.60;55.60;;;;;;5026324;28;19917;-82
2022/11/11 13:48:57;;;;;;;;;;;14.60;55.30;;;;;;5036422;28;20294;-80
2022/11/11 13:51:24;;;;;;;;;;;14.60;55.90;;;;;;5027069;28;19992;-81
2022/11/11 13:53:50;;;;;;;;;;;14.60;56.10;;;;;;5020445;28;19980;-81
2022/11/11 13:56:41;;;;;;;;;;;14.60;55.40;;;;;;5056717;28;19917;-80
2022/11/11 13:59:13;;;;;;;;;;;14.60;55.30;;;;;;5040719;28;19924;-81
2022/11/11 14:01:39;;;;;;;;;;;14.60;55.60;;;;;;5026862;28;19913;-82
2022/11/11 14:04:06;;;;;;;;;;;14.60;56.00;;;;;;5026708;28;19983;-82
2022/11/11 14:06:49;;;;;;;;;;;14.60;55.50;;;;;;5016802;28;19990;-80
2022/11/11 14:09:33;;;;;;;;;;;14.60;55.80;;;;;;5040526;28;19971;-81
2022/11/11 14:12:17;;;;;;;;;;;14.60;55.80;;;;;;5048512;23;20272;-86
2022/11/11 14:14:44;;;;;;;;;;;14.60;55.70;;;;;;5033062;28;20032;-87
2022/11/11 14:17:14;;;;;;;;;;;14.50;56.40;;;;;;5080143;28;19967;-88
2022/11/11 14:19:40;;;;;;;;;;;14.40;58.80;;;;;;5037067;28;20295;-85
2022/11/11 14:22:24;;;;;;;;;;;14.30;60.20;;;;;;5026973;28;19957;-87
2022/11/11 14:24:49;;;;;;;;;;;14.10;61.90;;;;;;5025457;28;19923;-85
2022/11/11 14:27:16;;;;;;;;;;;14.10;62.10;;;;;;5037520;28;20386;-86
2022/11/11 14:29:52;;;;;;;;;;;14.00;62.80;;;;;;5030738;28;19917;-86
2022/11/11 14:32:43;;;;;;;;;;;14.00;63.30;;;;;;5040774;28;20008;-87
2022/11/11 14:35:47;;;;;;;;;;;14.10;62.80;;;;;;5033393;28;19912;-88
2022/11/11 14:38:13;;;;;;;;;;;14.10;63.40;;;;;;4984490;28;20363;-86
2022/11/11 14:40:38;;;;;;;;;;;14.00;62.60;;;;;;4963651;28;19925;-85
2022/11/11 14:43:22;;;;;;;;;;;14.00;62.30;;;;;;5006148;28;20142;-85
2022/11/11 14:45:48;;;;;;;;;;;13.80;63.20;;;;;;5036773;28;19917;-86
2022/11/11 14:48:32;;;;;;;;;;;13.70;65.30;;;;;;5029150;28;20485;-85
2022/11/11 14:50:58;;;;;;;;;;;13.50;65.80;;;;;;5028179;28;19913;-85
2022/11/11 14:53:29;;;;;;;;;;;13.40;65.80;;;;;;5021085;28;20310;-86
2022/11/11 14:56:06;;;;;;;;;;;13.40;66.20;;;;;;5023947;28;19920;-89
2022/11/11 14:58:48;;;;;;;;;;;13.50;66.20;;;;;;5026059;28;19921;-91
2022/11/11 15:01:25;;;;;;;;;;;13.30;65.50;;;;;;5028615;28;20378;-89
2022/11/11 15:03:53;;;;;;;;;;;13.40;66.10;;;;;;5052269;28;19928;-87
2022/11/11 15:06:25;;;;;;;;;;;13.40;65.70;;;;;;5053371;28;19917;-85
2022/11/11 15:09:00;;;;;;;;;;;13.30;66.30;;;;;;5024173;28;20374;-86
2022/11/11 15:11:31;;;;;;;;;;;13.20;67.20;;;;;;5032774;28;20024;-87
2022/11/11 15:14:09;;;;;;;;;;;13.30;66.60;;;;;;5035717;28;19924;-86
2022/11/11 15:16:50;;;;;;;;;;;13.20;67.00;;;;;;5059541;28;20004;-87
2022/11/11 15:19:19;;;;;;;;;;;13.10;67.60;;;;;;5026896;28;19967;-87
2022/11/11 15:22:01;;;;;;;;;;;13.10;67.90;;;;;;5031451;28;19913;-87
2022/11/11 15:24:50;;;;;;;;;;;13.10;67.60;;;;;;5027917;28;19921;-87
2022/11/11 15:27:22;;;;;;;;;;;13.00;68.60;;;;;;5025000;28;19917;-86
2022/11/11 15:29:57;;;;;;;;;;;12.90;68.70;;;;;;5028584;28;19971;-85
2022/11/11 15:32:35;;;;;;;;;;;12.90;69.10;;;;;;5030376;28;19913;-86
2022/11/11 15:35:12;;;;;;;;;;;12.80;69.40;;;;;;5030899;28;19944;-85
2022/11/11 15:37:38;;;;;;;;;;;12.80;70.00;;;;;;5018193;28;19985;-83
2022/11/11 15:40:49;;;;;;;;;;;12.70;70.50;;;;;;5026161;28;20012;-85
2022/11/11 15:43:18;;;;;;;;;;;12.60;70.90;;;;;;4980706;28;19964;-85
2022/11/11 15:45:43;;;;;;;;;;;12.50;71.70;;;;;;5005299;28;20020;-84
2022/11/11 15:48:15;;;;;;;;;;;12.30;72.40;;;;;;5019332;28;22091;-84